Time;durP1;ratioP1;P1;durP2;ratioP2;P2;SDS_P1;SDS_P2;PMS_P1;PMS_P2;Temp;Humidity;BMP_temperature;BMP_pressure;BME280_temperature;BME280_humidity;BME280_pressure;Samples;Min_cycle;Max_cycle;Signal;HPM_P1;HPM_P2
2022/07/04 00:00:21;;;;;;;7.18;3.90;;;12.40;99.90;;;;;;5074465;28;20527;-52
2022/07/04 00:02:48;;;;;;;7.85;3.63;;;11.40;99.90;;;;;;5075086;28;21872;-52
2022/07/04 00:05:15;;;;;;;6.32;3.10;;;11.60;99.90;;;;;;5075231;28;20623;-53
2022/07/04 00:07:42;;;;;;;4.85;3.03;;;11.50;99.90;;;;;;5074302;28;20039;-52
2022/07/04 00:10:10;;;;;;;6.00;3.10;;;11.50;99.90;;;;;;5074393;28;20082;-54
2022/07/04 00:12:36;;;;;;;5.03;3.13;;;10.10;99.90;;;;;;5075370;28;20377;-53
2022/07/04 00:15:04;;;;;;;6.00;3.42;;;12.10;99.90;;;;;;5073287;28;20070;-52
2022/07/04 00:17:30;;;;;;;8.15;3.70;;;11.50;99.90;;;;;;5073804;28;20046;-52
2022/07/04 00:19:56;;;;;;;8.10;3.60;;;12.40;99.90;;;;;;5071771;28;20039;-53
2022/07/04 00:22:21;;;;;;;5.65;3.30;;;11.50;99.90;;;;;;5073691;28;20038;-51
2022/07/04 00:24:49;;;;;;;7.57;3.55;;;12.80;99.90;;;;;;5075004;28;20044;-52
2022/07/04 00:27:15;;;;;;;7.38;3.58;;;11.60;99.90;;;;;;5075806;28;20032;-53
2022/07/04 00:29:41;;;;;;;6.78;3.45;;;11.80;99.90;;;;;;5072757;28;20484;-52
2022/07/04 00:32:07;;;;;;;7.45;3.40;;;11.40;99.90;;;;;;5074207;28;20115;-52
2022/07/04 00:34:35;;;;;;;5.28;3.22;;;11.50;99.90;;;;;;5073836;28;20350;-53
2022/07/04 00:37:01;;;;;;;7.22;3.80;;;13.80;99.90;;;;;;5073371;28;20044;-53
2022/07/04 00:39:27;;;;;;;7.10;3.70;;;11.70;99.90;;;;;;5072422;28;20032;-50
2022/07/04 00:41:53;;;;;;;6.95;3.42;;;11.40;99.90;;;;;;5073495;28;20031;-51
2022/07/04 00:44:18;;;;;;;7.90;3.50;;;11.50;99.90;;;;;;5074835;28;20484;-53
2022/07/04 00:46:46;;;;;;;7.80;3.80;;;11.40;99.90;;;;;;5074678;28;20167;-51
2022/07/04 00:49:14;;;;;;;6.75;3.58;;;11.50;99.90;;;;;;5073862;28;20036;-52
2022/07/04 00:51:42;;;;;;;9.18;4.43;;;11.60;99.90;;;;;;5073632;28;20416;-52
2022/07/04 00:54:09;;;;;;;9.00;3.88;;;11.40;99.90;;;;;;5073359;28;20123;-50
2022/07/04 00:56:36;;;;;;;6.45;3.70;;;11.40;99.90;;;;;;5074116;28;20429;-51
2022/07/04 00:59:02;;;;;;;6.75;3.60;;;12.40;99.90;;;;;;5074662;28;20040;-51
2022/07/04 01:01:28;;;;;;;8.85;3.88;;;11.40;99.90;;;;;;5078147;28;20166;-50
2022/07/04 01:03:55;;;;;;;8.88;4.25;;;11.80;99.90;;;;;;5078147;28;20829;-53
2022/07/04 01:06:21;;;;;;;6.95;4.40;;;11.50;99.90;;;;;;5077813;28;20044;-52
2022/07/04 01:08:48;;;;;;;9.75;4.30;;;12.60;99.90;;;;;;5077309;28;20303;-53
2022/07/04 01:11:14;;;;;;;7.72;4.03;;;11.50;99.90;;;;;;5077539;28;20701;-51
2022/07/04 01:13:41;;;;;;;7.18;4.15;;;11.30;99.90;;;;;;5077726;28;20044;-53
2022/07/04 01:16:07;;;;;;;8.32;4.07;;;11.20;99.90;;;;;;5078081;28;20047;-51
2022/07/04 01:18:33;;;;;;;8.13;5.13;;;11.70;99.90;;;;;;5076801;28;20038;-51
2022/07/04 01:20:59;;;;;;;8.73;4.40;;;11.30;99.90;;;;;;5077567;28;20052;-52
2022/07/04 01:23:25;;;;;;;7.07;4.63;;;12.00;99.90;;;;;;5077547;28;20046;-51
2022/07/04 01:25:52;;;;;;;8.15;4.93;;;12.40;99.90;;;;;;5077058;28;20150;-53
2022/07/04 01:28:19;;;;;;;10.35;4.97;;;11.40;99.90;;;;;;5077591;28;20043;-53
2022/07/04 01:30:45;;;;;;;9.73;5.38;;;11.40;99.90;;;;;;5077024;28;20047;-52
2022/07/04 01:33:12;;;;;;;11.13;5.25;;;11.20;99.90;;;;;;5077645;28;20563;-52
2022/07/04 01:35:38;;;;;;;9.77;5.18;;;11.20;99.90;;;;;;5076130;28;20036;-52
2022/07/04 01:38:04;;;;;;;6.82;5.20;;;11.20;99.90;;;;;;5075979;28;20032;-53
2022/07/04 01:40:30;;;;;;;9.00;4.78;;;11.30;99.90;;;;;;5076315;28;20055;-52
2022/07/04 01:42:55;;;;;;;12.15;5.10;;;12.20;99.90;;;;;;5076538;28;20177;-52
2022/07/04 01:45:21;;;;;;;10.95;5.28;;;11.30;99.90;;;;;;5076273;28;20063;-52
2022/07/04 01:47:48;;;;;;;11.00;5.50;;;11.10;99.90;;;;;;5077797;28;20505;-53
2022/07/04 01:50:14;;;;;;;7.88;5.60;;;11.80;99.90;;;;;;5075832;28;20083;-53
2022/07/04 01:52:40;;;;;;;10.13;5.68;;;11.30;99.90;;;;;;5077394;28;20780;-51
2022/07/04 01:55:10;;;;;;;13.65;6.63;;;13.10;99.90;;;;;;5077501;28;20109;-51
2022/07/04 01:57:38;;;;;;;7.43;5.55;;;11.20;99.90;;;;;;5077088;28;20070;-50
2022/07/04 02:02:55;;;;;;;6.93;5.30;;;11.20;99.90;;;;;;5077160;28;20166;-52
2022/07/04 02:05:24;;;;;;;8.65;4.93;;;11.90;99.90;;;;;;5076124;28;20061;-52
2022/07/04 02:07:50;;;;;;;11.90;6.43;;;11.70;99.90;;;;;;5076421;28;20151;-48
2022/07/04 02:10:16;;;;;;;11.85;6.10;;;12.00;99.90;;;;;;5074186;28;20095;-49
2022/07/04 02:13:02;;;;;;;7.78;6.03;;;11.20;99.90;;;;;;5076416;28;20123;-51
2022/07/04 02:15:38;;;;;;;8.23;5.60;;;11.10;99.90;;;;;;5076680;28;20032;-48
2022/07/04 02:18:07;;;;;;;8.27;5.45;;;11.20;99.90;;;;;;5076275;28;20067;-51
2022/07/04 02:20:34;;;;;;;10.00;6.47;;;11.10;99.90;;;;;;5077101;28;20089;-52
2022/07/04 02:22:59;;;;;;;7.88;5.95;;;11.20;99.90;;;;;;5076143;28;20047;-52
2022/07/04 02:25:26;;;;;;;9.80;6.13;;;12.20;99.90;;;;;;5075821;28;20762;-52
2022/07/04 02:27:51;;;;;;;10.73;6.70;;;11.00;99.90;;;;;;5075672;28;20115;-51
2022/07/04 02:30:17;;;;;;;12.68;7.45;;;11.10;99.90;;;;;;5076667;28;20146;-49
2022/07/04 02:32:43;;;;;;;10.45;6.85;;;11.10;99.90;;;;;;5076185;28;20423;-48
2022/07/04 02:35:10;;;;;;;11.38;7.45;;;11.50;99.90;;;;;;5075942;28;20032;-53
2022/07/04 02:37:37;;;;;;;15.02;8.02;;;12.20;99.90;;;;;;5074230;28;20037;-51
2022/07/04 02:40:04;;;;;;;14.95;9.27;;;12.70;99.90;;;;;;5076258;28;20043;-49
2022/07/04 02:42:32;;;;;;;10.43;8.02;;;11.20;99.90;;;;;;5076486;28;20050;-50
2022/07/04 02:45:00;;;;;;;10.85;7.72;;;13.30;99.90;;;;;;5073763;28;20040;-53
2022/07/04 02:47:26;;;;;;;12.48;8.32;;;11.10;99.90;;;;;;5075325;28;20036;-53
2022/07/04 02:49:53;;;;;;;9.90;7.63;;;10.90;99.90;;;;;;5076011;28;20565;-51
2022/07/04 02:52:20;;;;;;;10.23;8.45;;;11.10;99.90;;;;;;5075819;28;20083;-52
2022/07/04 02:54:46;;;;;;;11.88;7.47;;;11.70;99.90;;;;;;5075273;28;20533;-53
2022/07/04 02:57:13;;;;;;;12.05;9.23;;;11.20;99.90;;;;;;5075852;28;20087;-48
2022/07/04 02:59:38;;;;;;;11.75;8.55;;;13.10;99.90;;;;;;5075667;28;20286;-52
2022/07/04 03:02:04;;;;;;;9.82;7.32;;;11.10;99.90;;;;;;5075067;28;20051;-50
2022/07/04 03:04:30;;;;;;;9.48;7.15;;;11.00;99.90;;;;;;5074960;28;20046;-50
2022/07/04 03:06:58;;;;;;;13.70;7.95;;;12.30;99.90;;;;;;5075230;28;20082;-49
2022/07/04 03:09:26;;;;;;;11.00;7.18;;;11.10;99.90;;;;;;5075624;28;20351;-53
2022/07/04 03:11:52;;;;;;;12.88;8.27;;;11.00;99.90;;;;;;5073850;28;20043;-52
2022/07/04 03:14:20;;;;;;;10.93;8.85;;;10.90;99.90;;;;;;5075158;28;20028;-50
2022/07/04 03:16:46;;;;;;;16.25;9.48;;;11.00;99.90;;;;;;5073621;28;20040;-53
2022/07/04 03:19:12;;;;;;;16.75;10.68;;;11.10;99.90;;;;;;5074454;28;20058;-50
2022/07/04 03:21:37;;;;;;;18.08;13.60;;;11.00;99.90;;;;;;5074289;28;20036;-50
2022/07/04 03:24:05;;;;;;;18.92;12.90;;;11.20;99.90;;;;;;5074338;28;20134;-49
2022/07/04 03:26:32;;;;;;;15.95;12.80;;;10.00;99.90;;;;;;5075208;28;20088;-49
2022/07/04 03:28:59;;;;;;;19.02;12.10;;;11.30;99.90;;;;;;5075739;28;20061;-52
2022/07/04 03:31:26;;;;;;;19.13;13.38;;;11.30;99.90;;;;;;5075211;28;20059;-52
2022/07/04 03:33:52;;;;;;;15.70;11.52;;;11.10;99.90;;;;;;5072761;28;20136;-52
2022/07/04 03:36:18;;;;;;;14.57;11.75;;;11.40;99.90;;;;;;5074612;28;20032;-53
2022/07/04 03:38:45;;;;;;;15.85;11.52;;;11.30;99.90;;;;;;5074964;28;20051;-53
2022/07/04 03:41:11;;;;;;;14.40;11.30;;;11.30;99.90;;;;;;5073784;28;20040;-52
2022/07/04 03:43:37;;;;;;;14.80;11.45;;;12.70;99.90;;;;;;5074523;28;20039;-52
2022/07/04 03:46:05;;;;;;;18.23;11.98;;;13.00;99.90;;;;;;5073879;28;20122;-51
2022/07/04 03:48:30;;;;;;;13.43;11.20;;;11.40;99.90;;;;;;5073343;28;20509;-47
2022/07/04 03:50:56;;;;;;;12.95;10.57;;;11.40;99.90;;;;;;5073975;28;20063;-52
2022/07/04 03:53:22;;;;;;;13.00;10.70;;;13.20;99.90;;;;;;5074075;28;20036;-50
2022/07/04 03:55:48;;;;;;;17.85;11.75;;;11.50;99.90;;;;;;5074315;28;20120;-49
2022/07/04 03:58:13;;;;;;;15.60;10.95;;;13.50;99.90;;;;;;5071674;28;20060;-51
2022/07/04 04:00:41;;;;;;;14.60;10.02;;;11.60;99.90;;;;;;5073586;28;20048;-52
2022/07/04 04:05:26;;;;;;;15.27;10.48;;;11.70;99.90;;;;;;5074545;28;20036;-52
2022/07/04 04:05:54;;;;;;;18.55;11.07;;;11.60;99.90;;;;;;5074255;28;20040;-53
2022/07/04 04:08:19;;;;;;;15.43;10.60;;;11.80;99.90;;;;;;5073692;28;20201;-52
2022/07/04 04:10:45;;;;;;;13.55;10.63;;;12.30;99.90;;;;;;5074358;28;20408;-52
2022/07/04 04:13:11;;;;;;;11.35;8.65;;;11.70;99.90;;;;;;5073733;28;20493;-53
2022/07/04 04:15:38;;;;;;;10.77;8.77;;;11.70;99.90;;;;;;5074561;28;20593;-49
2022/07/04 04:18:04;;;;;;;13.63;8.73;;;11.80;99.90;;;;;;5072991;28;20524;-52
2022/07/04 04:20:29;;;;;;;12.45;9.27;;;12.60;99.90;;;;;;5074416;28;20032;-53
2022/07/04 04:22:57;;;;;;;13.38;8.85;;;13.10;99.90;;;;;;5073556;28;20051;-50
2022/07/04 04:25:22;;;;;;;16.20;8.90;;;12.10;99.90;;;;;;5072303;28;20044;-53
2022/07/04 04:27:48;;;;;;;12.25;8.18;;;12.00;99.90;;;;;;5073685;28;20043;-53
2022/07/04 04:30:14;;;;;;;12.77;8.65;;;13.60;99.90;;;;;;5071853;28;20389;-53
2022/07/04 04:32:39;;;;;;;14.82;8.18;;;13.40;99.90;;;;;;5074376;28;20036;-53
2022/07/04 04:35:05;;;;;;;13.85;8.55;;;14.60;99.90;;;;;;5076901;28;20036;-50
2022/07/04 04:37:31;;;;;;;12.63;8.48;;;12.60;99.90;;;;;;5076501;28;20115;-53
2022/07/04 04:39:57;;;;;;;11.75;8.05;;;13.40;99.90;;;;;;5076852;28;20044;-50
2022/07/04 04:42:22;;;;;;;12.15;7.90;;;12.60;99.90;;;;;;5078457;28;20036;-53
2022/07/04 04:44:48;;;;;;;9.23;7.32;;;12.60;99.90;;;;;;5077172;28;20051;-53
2022/07/04 04:47:14;;;;;;;12.50;7.22;;;12.80;99.90;;;;;;5078119;28;20764;-53
2022/07/04 04:49:40;;;;;;;9.73;7.10;;;14.10;99.90;;;;;;5077927;28;20487;-54
2022/07/04 04:52:06;;;;;;;13.52;7.55;;;13.10;99.90;;;;;;5075306;28;20048;-52
2022/07/04 04:54:35;;;;;;;11.10;6.90;;;13.00;99.90;;;;;;5077664;28;20070;-54
2022/07/04 04:57:03;;;;;;;9.95;7.03;;;13.20;99.90;;;;;;5076993;28;20070;-54
2022/07/04 04:59:32;;;;;;;11.95;6.90;;;13.30;99.90;;;;;;5077611;28;20460;-53
2022/07/04 05:01:58;;;;;;;14.95;7.10;;;14.80;99.90;;;;;;5076144;28;20028;-53
2022/07/04 05:04:25;;;;;;;11.73;6.65;;;13.40;99.90;;;;;;5077049;28;20044;-48
2022/07/04 05:06:51;;;;;;;11.50;6.43;;;14.10;99.90;;;;;;5075989;28;20043;-43
2022/07/04 05:09:17;;;;;;;11.20;7.10;;;13.50;99.90;;;;;;5077617;28;20148;-47
2022/07/04 05:11:43;;;;;;;10.38;6.65;;;13.60;99.90;;;;;;5075803;28;20043;-47
2022/07/04 05:14:09;;;;;;;11.27;6.80;;;14.30;99.90;;;;;;5076330;28;20043;-46
2022/07/04 05:16:34;;;;;;;11.00;7.32;;;14.70;99.90;;;;;;5076705;28;20036;-46
2022/07/04 05:19:02;;;;;;;10.80;6.53;;;15.60;99.90;;;;;;5076288;28;20093;-42
2022/07/04 05:21:30;;;;;;;13.23;7.13;;;14.30;99.90;;;;;;5075205;28;20068;-46
2022/07/04 05:23:56;;;;;;;9.80;6.35;;;14.10;99.90;;;;;;5076535;28;20532;-45
2022/07/04 05:26:22;;;;;;;11.45;7.30;;;14.10;99.90;;;;;;5077479;28;20047;-46
2022/07/04 05:28:51;;;;;;;10.48;6.72;;;14.30;99.90;;;;;;5077220;28;20442;-45
2022/07/04 05:31:17;;;;;;;12.23;6.63;;;14.30;99.90;;;;;;5075817;28;20068;-45
2022/07/04 05:33:43;;;;;;;10.18;6.55;;;14.70;99.90;;;;;;5076434;28;20123;-47
2022/07/04 05:36:08;;;;;;;14.13;6.35;;;14.50;99.90;;;;;;5076953;28;20055;-47
2022/07/04 05:38:34;;;;;;;11.07;6.10;;;14.70;99.90;;;;;;5076827;28;20032;-46
2022/07/04 05:41:01;;;;;;;11.32;7.20;;;14.70;99.90;;;;;;5076327;28;20036;-46
2022/07/04 05:43:26;;;;;;;13.35;7.10;;;17.00;99.90;;;;;;5076433;28;20055;-48
2022/07/04 05:45:54;;;;;;;11.18;6.28;;;16.50;99.90;;;;;;5076362;28;20417;-46
2022/07/04 05:48:20;;;;;;;11.13;6.45;;;15.20;99.90;;;;;;5075761;28;20812;-47
2022/07/04 05:50:45;;;;;;;12.70;6.32;;;16.60;99.90;;;;;;5076390;28;21044;-47
2022/07/04 05:53:11;;;;;;;9.57;5.55;;;15.30;99.90;;;;;;5077034;28;20127;-46
2022/07/04 05:55:37;;;;;;;9.88;5.65;;;15.40;99.90;;;;;;5076266;28;20369;-47
2022/07/04 05:58:02;;;;;;;10.75;5.20;;;15.50;99.90;;;;;;5077186;28;20068;-45
2022/07/04 06:00:28;;;;;;;10.13;4.95;;;15.60;99.90;;;;;;5075940;28;20546;-47
2022/07/04 06:02:54;;;;;;;12.95;4.60;;;15.80;99.90;;;;;;5076114;28;20314;-48
2022/07/04 06:05:19;;;;;;;14.95;4.63;;;15.70;99.90;;;;;;5077491;28;20079;-46
2022/07/04 06:07:48;;;;;;;8.60;4.55;;;15.80;99.90;;;;;;5075073;28;20043;-45
2022/07/04 06:10:15;;;;;;;12.30;5.30;;;18.00;99.90;;;;;;5075372;28;20118;-46
2022/07/04 06:12:41;;;;;;;9.07;4.25;;;16.10;99.90;;;;;;5074788;28;20036;-47
2022/07/04 06:15:09;;;;;;;7.80;3.85;;;16.90;99.90;;;;;;5075442;28;20047;-48
2022/07/04 06:17:37;;;;;;;11.23;4.10;;;16.30;99.90;;;;;;5076473;28;20043;-43
2022/07/04 06:20:04;;;;;;;9.40;4.13;;;16.50;99.90;;;;;;5075658;28;20040;-45
2022/07/04 06:22:44;;;;;;;9.98;3.67;;;17.10;99.90;;;;;;5075290;28;20044;-43
2022/07/04 06:25:18;;;;;;;9.10;3.85;;;19.70;99.90;;;;;;5074698;28;20040;-43
2022/07/04 06:27:45;;;;;;;11.23;3.35;;;18.40;99.90;;;;;;5074429;28;20463;-45
2022/07/04 06:30:13;;;;;;;11.77;3.72;;;18.40;99.90;;;;;;5075418;28;20802;-43
2022/07/04 06:32:47;;;;;;;7.53;3.63;;;18.40;99.90;;;;;;5076007;28;20135;-46
2022/07/04 06:38:01;;;;;;;10.32;3.50;;;20.30;99.90;;;;;;5075678;28;20074;-47
2022/07/04 06:40:27;;;;;;;10.70;3.20;;;20.50;99.90;;;;;;5075604;28;20134;-48
2022/07/04 06:42:52;;;;;;;8.93;3.80;;;18.30;99.90;;;;;;5076324;28;20043;-46
2022/07/04 06:45:18;;;;;;;9.52;3.30;;;18.40;99.90;;;;;;5072047;28;20067;-45
2022/07/04 06:47:46;;;;;;;11.65;3.20;;;18.30;99.90;;;;;;5075534;28;20123;-45
2022/07/04 06:50:12;;;;;;;9.45;3.60;;;18.30;99.90;;;;;;5075235;28;21056;-48
2022/07/04 06:52:38;;;;;;;8.45;3.78;;;18.50;99.90;;;;;;5076407;28;20101;-46
2022/07/04 06:55:05;;;;;;;10.23;3.92;;;18.80;99.90;;;;;;5075006;28;20040;-44
2022/07/04 06:57:33;;;;;;;8.90;3.45;;;19.30;99.90;;;;;;5074216;28;20700;-44
2022/07/04 06:59:59;;;;;;;12.93;4.70;;;19.60;99.90;;;;;;5074613;28;20040;-45
2022/07/04 07:02:24;;;;;;;9.40;3.42;;;19.90;99.70;;;;;;5075706;28;20050;-45
2022/07/04 07:04:54;;;;;;;11.68;3.78;;;19.90;98.80;;;;;;5075494;28;20647;-44
2022/07/04 07:07:20;;;;;;;11.48;4.20;;;19.40;99.00;;;;;;5073134;28;20086;-46
2022/07/04 07:09:45;;;;;;;8.73;3.15;;;19.30;99.70;;;;;;5074850;28;20765;-44
2022/07/04 07:12:11;;;;;;;8.25;3.20;;;19.00;99.90;;;;;;5075488;28;20931;-45
2022/07/04 07:14:37;;;;;;;7.68;2.88;;;20.60;99.80;;;;;;5074471;28;20134;-47
2022/07/04 07:17:03;;;;;;;8.68;2.63;;;19.20;99.70;;;;;;5073838;28;20044;-44
2022/07/04 07:19:31;;;;;;;10.98;3.20;;;19.80;97.80;;;;;;5071290;28;20129;-48
2022/07/04 07:21:56;;;;;;;6.97;2.25;;;20.30;93.30;;;;;;5074467;28;20453;-45
2022/07/04 07:24:23;;;;;;;11.32;3.35;;;22.20;92.50;;;;;;5073297;28;20032;-46
2022/07/04 07:26:50;;;;;;;7.75;3.17;;;21.40;84.00;;;;;;5072212;28;20123;-44
2022/07/04 07:29:16;;;;;;;9.23;3.00;;;21.60;84.30;;;;;;5075517;28;20032;-43
2022/07/04 07:31:42;;;;;;;8.35;3.28;;;20.60;88.30;;;;;;5074275;28;20039;-44
2022/07/04 07:34:07;;;;;;;8.95;3.15;;;20.30;82.50;;;;;;5075092;28;20047;-48
2022/07/04 07:36:33;;;;;;;9.85;3.72;;;19.80;83.60;;;;;;5073744;28;20051;-47
2022/07/04 07:39:00;;;;;;;11.40;3.10;;;19.60;90.60;;;;;;5073493;28;20206;-47
2022/07/04 07:41:26;;;;;;;8.38;3.42;;;19.00;94.20;;;;;;5073847;28;20139;-46
2022/07/04 07:43:52;;;;;;;7.85;2.97;;;18.80;98.60;;;;;;5074768;28;20076;-47
2022/07/04 07:46:17;;;;;;;9.95;3.10;;;18.40;99.90;;;;;;5073626;28;20374;-47
2022/07/04 07:48:43;;;;;;;7.30;2.70;;;19.90;99.90;;;;;;5073900;28;20044;-47
2022/07/04 07:51:10;;;;;;;5.97;1.63;;;18.30;99.90;;;;;;5073808;28;21115;-45
2022/07/04 07:53:36;;;;;;;6.03;1.80;;;20.00;99.90;;;;;;5074875;28;20066;-46
2022/07/04 07:56:03;;;;;;;8.73;2.55;;;17.90;99.90;;;;;;5072766;28;20135;-46
2022/07/04 07:58:31;;;;;;;10.85;2.05;;;17.90;99.90;;;;;;5074447;28;20604;-48
2022/07/04 08:00:56;;;;;;;15.90;2.22;;;17.70;99.90;;;;;;5073741;28;20138;-46
2022/07/04 08:06:07;;;;;;;19.58;3.33;;;17.70;99.90;;;;;;5073284;28;20058;-44
2022/07/04 08:08:33;;;;;;;10.23;2.17;;;17.70;99.90;;;;;;5072278;28;20126;-46
2022/07/04 08:10:59;;;;;;;8.65;2.40;;;18.10;99.90;;;;;;5075195;28;20313;-46
2022/07/04 08:13:25;;;;;;;8.48;2.20;;;17.70;99.90;;;;;;5073153;28;20081;-43
2022/07/04 08:15:50;;;;;;;12.88;1.92;;;17.60;99.90;;;;;;5072411;28;20040;-43
2022/07/04 08:18:17;;;;;;;4.85;1.63;;;17.80;99.90;;;;;;5073696;28;20040;-46
2022/07/04 08:20:43;;;;;;;10.55;2.30;;;19.80;99.90;;;;;;5072371;28;20040;-44
2022/07/04 08:23:10;;;;;;;8.52;2.25;;;17.60;99.90;;;;;;5074156;28;20130;-47
2022/07/04 08:25:36;;;;;;;4.82;1.45;;;17.80;99.90;;;;;;5073163;28;20415;-46
2022/07/04 08:28:03;;;;;;;8.20;2.47;;;17.60;99.90;;;;;;5074084;28;20039;-44
2022/07/04 08:30:29;;;;;;;5.03;1.80;;;17.90;99.90;;;;;;5073696;28;20623;-48
2022/07/04 08:32:55;;;;;;;6.72;1.80;;;17.80;99.90;;;;;;5073198;28;20508;-47
2022/07/04 08:35:21;;;;;;;6.00;1.40;;;18.00;99.90;;;;;;5073388;28;20039;-43
2022/07/04 08:37:48;;;;;;;5.03;1.20;;;19.30;99.90;;;;;;5074862;28;20040;-44
2022/07/04 08:40:15;;;;;;;8.48;1.67;;;19.90;96.90;;;;;;5074991;28;20056;-47
2022/07/04 08:42:42;;;;;;;4.40;1.77;;;21.50;93.40;;;;;;5072857;28;20511;-47
2022/07/04 08:45:09;;;;;;;6.80;1.52;;;22.70;58.80;;;;;;5072929;28;20069;-45
2022/07/04 08:47:35;;;;;;;7.43;1.90;;;23.30;1.00;;;;;;5073536;28;20123;-48
2022/07/04 08:50:13;;;;;;;6.82;1.08;;;23.40;99.90;;;;;;5073711;28;20056;-49
2022/07/04 08:52:42;;;;;;;5.95;1.48;;;22.60;99.90;;;;;;5072731;28;20644;-45
2022/07/04 09:00:43;;;;;;;10.07;1.88;;;21.70;99.90;;;;;;5075185;28;20067;-48
2022/07/04 09:03:09;;;;;;;9.30;2.35;;;21.90;1.00;;;;;;5073592;28;20059;-46
2022/07/04 09:05:36;;;;;;;5.88;1.77;;;22.40;99.90;;;;;;5073278;28;20036;-45
2022/07/04 09:08:04;;;;;;;5.65;1.33;;;22.60;1.00;;;;;;5072811;28;20036;-48
2022/07/04 09:10:30;;;;;;;7.35;1.50;;;22.20;99.90;;;;;;5074110;28;20561;-47
2022/07/04 09:12:56;;;;;;;6.88;1.40;;;21.70;99.90;;;;;;5070790;28;20401;-49
2022/07/04 09:15:25;;;;;;;5.75;1.45;;;21.30;40.90;;;;;;5072925;28;20090;-48
2022/07/04 09:17:50;;;;;;;5.03;1.40;;;21.90;99.90;;;;;;5071954;28;20036;-47
2022/07/04 09:20:22;;;;;;;5.32;1.33;;;20.60;99.90;;;;;;5074683;28;20679;-47
2022/07/04 09:22:51;;;;;;;8.02;2.47;;;20.20;99.90;;;;;;5076526;28;20040;-48
2022/07/04 09:25:17;;;;;;;6.43;1.90;;;20.00;1.00;;;;;;5076130;28;20040;-46
2022/07/04 09:27:54;;;;;;;4.78;1.50;;;19.80;1.00;;;;;;5076812;28;20706;-48
2022/07/04 09:30:22;;;;;;;5.95;1.50;;;20.00;1.00;;;;;;5078639;28;20047;-49
2022/07/04 09:32:52;;;;;;;5.03;1.23;;;19.90;99.90;;;;;;5076787;28;20467;-47
2022/07/04 09:35:23;;;;;;;7.85;1.55;;;20.60;99.90;;;;;;5077094;28;20075;-48
2022/07/04 09:37:59;;;;;;;7.85;1.20;;;22.80;35.80;;;;;;5076802;28;20044;-46
2022/07/04 09:43:21;;;;;;;10.10;2.88;;;21.40;99.90;;;;;;5075097;28;20409;-48
2022/07/04 09:45:57;;;;;;;8.27;2.13;;;21.20;1.00;;;;;;5075332;28;20075;-47
2022/07/04 09:48:24;;;;;;;10.20;1.67;;;21.20;99.90;;;;;;5075744;28;20043;-48
2022/07/04 09:50:51;;;;;;;4.97;1.48;;;21.30;99.90;;;;;;5074823;28;20409;-49
2022/07/04 09:53:16;;;;;;;5.45;1.13;;;21.60;99.90;;;;;;5077681;28;20039;-44
2022/07/04 09:55:42;;;;;;;8.48;2.40;;;21.90;99.90;;;;;;5076837;28;20039;-49
2022/07/04 09:58:10;;;;;;;9.00;1.52;;;22.10;99.90;;;;;;5075351;28;20540;-44
2022/07/04 10:00:39;;;;;;;3.72;1.10;;;22.60;99.90;;;;;;5076941;28;21122;-47
2022/07/04 10:03:37;;;;;;;6.32;2.00;;;22.90;1.00;;;;;;5075527;28;20028;-48
2022/07/04 10:06:07;;;;;;;4.07;1.17;;;22.90;1.00;;;;;;5076583;28;20075;-46
2022/07/04 10:08:33;;;;;;;4.65;0.95;;;23.00;99.90;;;;;;5075200;28;20058;-47
2022/07/04 10:11:01;;;;;;;5.50;1.15;;;22.80;99.90;;;;;;5075123;28;20047;-49
2022/07/04 10:13:27;;;;;;;2.13;0.90;;;22.90;91.30;;;;;;5075176;28;20040;-44
2022/07/04 10:15:53;;;;;;;5.85;1.35;;;22.90;76.40;;;;;;5077447;28;20054;-45
2022/07/04 10:18:21;;;;;;;6.10;1.20;;;22.70;30.20;;;;;;5075824;28;20520;-49
2022/07/04 10:20:49;;;;;;;5.00;1.10;;;23.00;16.90;;;;;;5075686;28;20048;-45
2022/07/04 10:23:20;;;;;;;3.17;0.75;;;23.20;36.00;;;;;;5076283;28;20047;-48
2022/07/04 10:25:50;;;;;;;3.05;0.68;;;23.20;1.00;;;;;;5075204;28;20428;-47
2022/07/04 10:28:17;;;;;;;2.83;1.00;;;23.40;1.00;;;;;;5070728;28;20381;-48
2022/07/04 10:30:47;;;;;;;2.58;0.85;;;23.50;99.90;;;;;;5076973;28;20382;-47
2022/07/04 10:33:15;;;;;;;4.57;1.00;;;23.30;99.90;;;;;;5075900;28;20040;-44
2022/07/04 10:35:57;;;;;;;2.75;0.90;;;23.60;99.90;;;;;;5074392;28;20054;-47
2022/07/04 10:38:27;;;;;;;3.30;0.88;;;23.10;99.90;;;;;;5074035;28;20066;-44
2022/07/04 10:41:09;;;;;;;5.05;1.00;;;23.30;99.90;;;;;;5075233;28;20052;-45
2022/07/04 10:43:37;;;;;;;3.63;1.00;;;23.40;99.90;;;;;;5076148;28;20127;-46
2022/07/04 10:46:37;;;;;;;2.83;0.93;;;23.50;99.90;;;;;;5075272;28;20055;-47
2022/07/04 10:49:14;;;;;;;4.80;1.00;;;23.20;99.90;;;;;;5011926;28;20581;-46
2022/07/04 10:51:43;;;;;;;5.28;1.15;;;23.20;99.90;;;;;;5012228;28;20045;-46
2022/07/04 10:54:34;;;;;;;3.42;1.00;;;23.10;99.90;;;;;;5010830;28;20529;-48
2022/07/04 10:57:20;;;;;;;1.60;0.80;;;23.20;99.90;;;;;;5011399;28;20041;-47
2022/07/04 10:59:54;;;;;;;3.95;0.90;;;23.20;99.90;;;;;;5013344;28;20101;-45
2022/07/04 11:02:22;;;;;;;4.45;1.20;;;23.20;99.90;;;;;;5012778;28;20052;-46
2022/07/04 11:05:02;;;;;;;4.78;1.48;;;22.90;99.90;;;;;;5011182;28;20457;-48
2022/07/04 11:07:58;;;;;;;4.13;1.60;;;23.40;99.90;;;;;;5013165;28;20212;-45
2022/07/04 11:10:26;;;;;;;5.28;1.00;;;23.30;99.90;;;;;;4936829;28;20930;-45
2022/07/04 11:12:54;;;;;;;2.60;0.82;;;23.00;99.80;;;;;;4936531;28;20061;-48
2022/07/04 11:15:31;;;;;;;3.42;1.00;;;23.10;30.90;;;;;;4935459;28;20047;-45
2022/07/04 11:18:08;;;;;;;3.53;0.90;;;23.00;8.20;;;;;;4935961;28;20142;-45
2022/07/04 11:20:38;;;;;;;5.25;1.35;;;22.60;1.00;;;;;;4935652;28;20118;-45
2022/07/04 11:23:22;;;;;;;3.97;1.15;;;22.40;1.00;;;;;;4936371;28;20045;-48
2022/07/04 11:25:50;;;;;;;5.80;1.00;;;22.80;25.40;;;;;;4972271;28;20547;-46
2022/07/04 11:28:36;;;;;;;2.33;0.80;;;22.70;29.60;;;;;;4975600;28;20047;-47
2022/07/04 11:31:02;;;;;;;3.65;0.90;;;22.80;99.20;;;;;;4975904;28;20184;-47
2022/07/04 11:33:33;;;;;;;2.72;0.90;;;23.10;21.80;;;;;;4973575;28;20050;-48
2022/07/04 11:36:17;;;;;;;2.33;0.75;;;23.10;1.00;;;;;;4957891;28;20278;-44
2022/07/04 11:38:58;;;;;;;4.60;0.98;;;23.00;1.00;;;;;;4972784;28;20565;-47
2022/07/04 11:47:11;;;;;;;3.40;0.73;;;23.00;1.00;;;;;;5036148;28;20047;-46
2022/07/04 11:49:51;;;;;;;3.92;0.90;;;23.20;1.00;;;;;;5073893;28;20071;-49
2022/07/04 11:52:25;;;;;;;2.22;0.90;;;23.30;1.00;;;;;;5073978;28;20075;-44
2022/07/04 11:54:53;;;;;;;5.07;1.02;;;23.10;1.00;;;;;;5073846;28;20040;-46
2022/07/04 11:57:23;;;;;;;2.97;0.90;;;23.30;1.00;;;;;;5073884;28;20039;-46
2022/07/04 11:59:54;;;;;;;4.32;1.10;;;23.40;1.00;;;;;;5073844;28;20559;-45
2022/07/04 12:02:23;;;;;;;3.50;0.90;;;23.10;1.00;;;;;;5074022;28;20650;-47
2022/07/04 12:04:49;;;;;;;3.60;0.93;;;23.00;1.00;;;;;;5073416;28;20039;-45
2022/07/04 12:07:18;;;;;;;3.50;0.80;;;22.50;1.00;;;;;;5073715;28;20032;-48
2022/07/04 12:09:45;;;;;;;4.00;0.90;;;22.40;1.00;;;;;;5072391;28;20040;-50
2022/07/04 12:12:12;;;;;;;3.80;1.00;;;22.40;1.00;;;;;;5074070;28;21016;-47
2022/07/04 12:14:38;;;;;;;2.38;0.70;;;22.40;1.00;;;;;;5072393;28;20036;-45
2022/07/04 12:17:14;;;;;;;2.70;0.80;;;22.20;1.00;;;;;;5072888;28;20565;-45
2022/07/04 12:19:58;;;;;;;3.25;1.08;;;22.20;1.00;;;;;;5072469;28;20531;-47
2022/07/04 12:22:36;;;;;;;4.20;1.10;;;22.50;1.00;;;;;;5071381;28;20139;-46
2022/07/04 12:25:04;;;;;;;3.17;0.80;;;22.50;1.00;;;;;;5073340;28;20551;-45
2022/07/04 12:27:30;;;;;;;2.67;0.80;;;22.20;1.00;;;;;;5073359;28;20520;-48
2022/07/04 12:29:59;;;;;;;3.20;0.80;;;22.60;1.00;;;;;;5073195;28;20039;-46
2022/07/04 12:32:43;;;;;;;4.78;1.00;;;23.00;1.00;;;;;;5072589;28;20204;-44
2022/07/04 12:35:31;;;;;;;4.75;1.00;;;23.00;1.00;;;;;;5074783;28;20062;-48
2022/07/04 12:38:07;;;;;;;8.93;1.63;;;24.70;1.00;;;;;;5074406;28;20104;-45
2022/07/04 12:40:36;;;;;;;5.05;1.38;;;22.40;1.00;;;;;;5073111;28;20071;-50
2022/07/04 12:43:02;;;;;;;3.08;0.70;;;22.10;1.00;;;;;;5073619;28;20129;-46
2022/07/04 12:45:48;;;;;;;2.63;0.80;;;22.30;1.00;;;;;;5073914;28;20117;-47
2022/07/04 12:48:20;;;;;;;3.00;0.80;;;22.50;1.00;;;;;;5072660;28;20040;-44
2022/07/04 12:50:45;;;;;;;3.08;1.00;;;22.90;1.00;;;;;;5072903;28;20079;-45
2022/07/04 12:53:14;;;;;;;2.88;0.80;;;22.90;1.00;;;;;;5073626;28;20523;-46
2022/07/04 12:55:44;;;;;;;4.10;0.82;;;24.70;1.00;;;;;;5076223;28;20954;-48
2022/07/04 12:58:11;;;;;;;;;;;23.00;1.00;;;;;;5077434;28;20068;-45
2022/07/04 13:00:37;;;;;;;5.07;1.05;;;22.90;99.90;;;;;;5077602;28;20073;-46
2022/07/04 13:03:04;;;;;;;7.05;0.85;;;23.20;99.90;;;;;;5076766;28;20500;-44
2022/07/04 13:05:30;;;;;;;2.03;0.70;;;22.90;99.90;;;;;;5077624;28;20575;-45
2022/07/04 13:07:59;;;;;;;2.38;0.55;;;23.00;99.90;;;;;;5078298;28;20150;-44
2022/07/04 13:10:25;;;;;;;1.95;0.50;;;24.90;99.90;;;;;;5077816;28;20075;-44